M I D A S
Marine Information and Data Acquisition System
Tripno 341 of the Zeeleeuw from 2002-09-25 06:46:03 to 2002-09-25 12:56:14
Back to CruiseResearch ActivitiesStationsMapUnderway DataData graphs

EquipmentUnitsComment
TimeDGPSUTC
LatitudeDGPSDM.mWGS84
LongitudeDGPSDM.mWGS84
HeadingGyrodeg 
SOGDGPSknotsSpeed over ground
COGDGPSdegCourse over ground
DepthEcho soundermeters200 kHz
Missing or incorrect values are displayed as -999
Navigation data collected by the RV Zeeleeuw from 2002-09-25 06:46:03 to 2002-09-25 12:56:14
Time Latitude Longitude Heading SOG COG Depth
2002-09-25 06:47:04 51°13.668 2°55.947 130.7   59.8 7.2
2002-09-25 06:48:04 51°13.669 2°55.947 131.2   43 7.2
2002-09-25 06:49:04 51°13.669 2°55.947 130.7   39.1 7.2
2002-09-25 06:50:04 51°13.669 2°55.947 131.3   335.7 7.3
2002-09-25 06:51:04 51°13.668 2°55.947 131.2   203.5 7.2
2002-09-25 06:52:05 51°13.668 2°55.947 131.8   129.8 7.2
2002-09-25 06:53:03 51°13.668 2°55.947 131.3   154.4 7.2
2002-09-25 06:54:05 51°13.668 2°55.947 131.2   309.5 7.2
2002-09-25 06:55:03 51°13.667 2°55.948 130   354 7.1
2002-09-25 06:56:03 51°13.667 2°55.948 128.7   223.3 7.1
2002-09-25 06:57:03 51°13.668 2°55.948 131.5   20.6 7.1
2002-09-25 06:58:03 51°13.667 2°55.948 131.8   181.1 7.1
2002-09-25 06:59:04 51°13.668 2°55.948 131.7 0.1 5.7 7.1
2002-09-25 07:00:04 51°13.667 2°55.947 122   206.1 7.1
2002-09-25 07:01:03 51°13.665 2°55.946 110.5 0.1 232.5 7.1
2002-09-25 07:02:06 51°13.671 2°55.91 104.2 2.3 283.5 -999
2002-09-25 07:03:05 51°13.679 2°55.832 104.8 3.6 279.6 -999
2002-09-25 07:04:04 51°13.686 2°55.799 81.8 1.9 81.1 10
2002-09-25 07:05:06 51°13.679 2°55.785 76.5 2 247.5 -999
2002-09-25 07:06:05 51°13.695 2°55.812 33.5 1 39.3 6.1
2002-09-25 07:07:05 51°13.686 2°55.805 24.8 1 24 -999
2002-09-25 07:08:02 51°13.694 2°55.81 2.8 0.7 171.2 9.9
2002-09-25 07:09:06 51°13.689 2°55.821 332.2 2.8 149 -999
2002-09-25 07:10:05 51°13.68 2°55.819 312.8 3.1 309.2 8.6
2002-09-25 07:11:03 51°13.734 2°55.714 321 6.3 314.2 9.9
2002-09-25 07:12:03 51°13.83 2°55.615 342.3 7.2 336.1 9
2002-09-25 07:13:05 51°13.948 2°55.545 343.8 7.5 339.8 9.6
2002-09-25 07:14:03 51°14.058 2°55.469 339.5 7.5 335.6 9.7
2002-09-25 07:15:05 51°14.17 2°55.373 332.5 7.5 328.4 9.4
2002-09-25 07:16:05 51°14.265 2°55.244 318.5 7.6 315.1 9.5
2002-09-25 07:17:03 51°14.343 2°55.096 314.2 7.5 307.7 9.4
2002-09-25 07:18:04 51°14.387 2°54.89 276 9.7 269.7 9
2002-09-25 07:19:03 51°14.377 2°54.584 271 13 265.2 8.7
2002-09-25 07:20:09 51°14.315 2°54.19 261.3 14.2 255.2 8.1
2002-09-25 07:21:09 51°14.248 2°53.824 261 14.4 254.4 8.2
2002-09-25 07:22:09 51°14.151 2°53.468 245.7 14.8 241.1 8.6
2002-09-25 07:23:10 51°14.03 2°53.119 244.7 14.8 239.4 9
2002-09-25 07:24:10 51°13.907 2°52.777 244.2 14.9 239.9 9.3
2002-09-25 07:25:10 51°13.789 2°52.429 245.5 14.9 241.6 9.6
2002-09-25 07:26:10 51°13.664 2°52.077 243.8 15.3 240.3 9.7
2002-09-25 07:27:10 51°13.532 2°51.726 245.3 15.4 241.5 9.6
2002-09-25 07:28:10 51°13.4 2°51.376 240.7 15.2 238.5 9.8
2002-09-25 07:29:10 51°13.273 2°51.022 243 15.4 240.4 9.9
2002-09-25 07:30:09 51°13.145 2°50.676 245.3 15.5 240.8 10
2002-09-25 07:31:10 51°13.01 2°50.322 243.3 15.6 239.7 10.2
2002-09-25 07:32:10 51°12.877 2°49.973 242.5 15.4 238.8 10.1
2002-09-25 07:33:09 51°12.747 2°49.627 240.8 15.6 237.7 10.2
2002-09-25 07:34:10 51°12.61 2°49.27 241.7 15.6 237.9 10.4
2002-09-25 07:35:10 51°12.472 2°48.924 240 15.4 237.2 10.2
2002-09-25 07:36:10 51°12.337 2°48.579 240 15.4 236.9 10.3
2002-09-25 07:37:09 51°12.206 2°48.239 243.8 15.4 240 10.1
2002-09-25 07:38:10 51°12.079 2°47.881 244.5 15.2 241.5 10.2
2002-09-25 07:39:10 51°11.961 2°47.522 245.2 15.2 242.7 9.9
2002-09-25 07:40:09 51°11.858 2°47.16 250 15.3 246.1 10.3
2002-09-25 07:41:10 51°11.758 2°46.783 250 15.4 246.2 10.4
2002-09-25 07:42:10 51°11.662 2°46.408 251.8 15.4 247.8 10.7
2002-09-25 07:43:10 51°11.576 2°46.029 256 15.1 250.8 10.9
2002-09-25 07:44:09 51°11.492 2°45.657 253.5 15.1 249 10.7
2002-09-25 07:45:10 51°11.404 2°45.27 254.3 15.4 250.1 10.8
2002-09-25 07:46:10 51°11.315 2°44.891 254.5 15.4 250.3 10.7
2002-09-25 07:47:09 51°11.223 2°44.519 251.3 15.2 247.5 10.6
2002-09-25 07:48:10 51°11.134 2°44.135 257 15.3 252.7 10.6
2002-09-25 07:49:10 51°11.065 2°43.747 258.8 15.3 255.5 10.7
2002-09-25 07:50:10 51°10.997 2°43.357 258.3 15.3 254.3 10.8
2002-09-25 07:51:09 51°10.93 2°42.972 257.7 15.4 253.6 10.8
2002-09-25 07:52:10 51°10.86 2°42.576 259 15.5 254.5 10.8
2002-09-25 07:53:10 51°10.791 2°42.188 258 15.2 254.3 11
2002-09-25 07:54:10 51°10.724 2°41.798 259 15.3 255.4 11
2002-09-25 07:55:10 51°10.654 2°41.41 257.2 15.2 253.1 11.1
2002-09-25 07:56:10 51°10.585 2°41.018 258 15.4 254.8 11.2
2002-09-25 07:57:10 51°10.517 2°40.623 258.5 15.3 255 11.3
2002-09-25 07:58:09 51°10.447 2°40.239 258.5 15.4 253.9 11.8
2002-09-25 07:59:10 51°10.38 2°39.842 260 15.2 256.2 12.3
2002-09-25 08:00:10 51°10.312 2°39.45 256.8 15.3 253 13
2002-09-25 08:01:10 51°10.247 2°39.061 259.8 15.3 255.1 14.1
2002-09-25 08:02:09 51°10.19 2°38.674 262.7 15.4 258.2 14.2
2002-09-25 08:03:10 51°10.129 2°38.272 259.8 15.3 255.8 15
2002-09-25 08:04:10 51°10.073 2°37.876 262.2 15.3 257.9 15.5
2002-09-25 08:05:10 51°10.024 2°37.48 264.5 15.3 259.6 16.2
2002-09-25 08:06:10 51°9.978 2°37.081 265 15.2 261 16.6
2002-09-25 08:07:10 51°9.94 2°36.683 267 15 262.8 16.4
2002-09-25 08:08:10 51°9.938 2°36.284 278.8 15.1 272.9 16.6
2002-09-25 08:09:10 51°9.991 2°35.903 300.7 14.6 292.4 16.4
2002-09-25 08:10:10 51°10.121 2°35.595 320.5 13.5 312.7 10
2002-09-25 08:11:10 51°10.298 2°35.389 337.5 13.1 329.4 10.1
2002-09-25 08:12:10 51°10.5 2°35.412 26.7 12.2 20.3 8.8
2002-09-25 08:13:10 51°10.673 2°35.585 40.5 12.2 36.9 8.7
2002-09-25 08:14:10 51°10.836 2°35.782 41.3 12.4 37.4 8.9
2002-09-25 08:15:10 51°10.996 2°35.982 40.5 12.3 36.8 9.3
2002-09-25 08:16:10 51°11.16 2°36.18 39.8 12.4 37.1 9.5
2002-09-25 08:17:10 51°11.329 2°36.361 37.2 12.2 32.1 9.6
2002-09-25 08:18:10 51°11.498 2°36.536 37.5 12.1 32.1 9.6
2002-09-25 08:19:10 51°11.668 2°36.709 38 11.8 33.5 9.5
2002-09-25 08:20:10 51°11.832 2°36.882 38.2 11.7 33 9.6
2002-09-25 08:21:10 51°11.999 2°37.055 37.2 12 32.4 9.7
2002-09-25 08:22:10 51°12.169 2°37.23 38.2 12.2 33.2 9.8
2002-09-25 08:23:10 51°12.337 2°37.406 38.7 12.1 33.8 10
2002-09-25 08:24:10 51°12.505 2°37.581 38.3 11.9 33.3 10.9
2002-09-25 08:25:10 51°12.676 2°37.755 38 12.3 32.2 11.3
2002-09-25 08:26:10 51°12.845 2°37.928 38.5 12 33.5 11.6
2002-09-25 08:27:10 51°13.01 2°38.1 38.2 12.1 32.3 12.5
2002-09-25 08:28:10 51°13.179 2°38.272 37.8 12.2 32 12.7
2002-09-25 08:29:10 51°13.355 2°38.429 33 11.9 27.6 13
2002-09-25 08:30:10 51°13.543 2°38.557 27.7 12.4 19.8 13
2002-09-25 08:31:10 51°13.733 2°38.672 28.3 12.2 20.7 12.3
2002-09-25 08:32:10 51°13.922 2°38.784 27.3 12 20.8 11.5
2002-09-25 08:33:10 51°14.12 2°38.783 348.8 13.1 338 10.7
2002-09-25 08:34:10 51°14.276 2°38.549 305.8 14 296.3 15.3
2002-09-25 08:35:10 51°14.272 2°38.166 257.5 15.1 252.8 17.4
2002-09-25 08:36:10 51°14.145 2°37.814 240.3 15.2 237.5 18.2
2002-09-25 08:37:10 51°14.015 2°37.456 242.7 15.5 240.3 18.8
2002-09-25 08:38:09 51°13.902 2°37.096 250.2 15.3 247.9 19
2002-09-25 08:39:10 51°13.781 2°36.724 245 15.4 242.5 18.7
2002-09-25 08:40:10 51°13.663 2°36.361 245.8 15.6 242.7 18.3
2002-09-25 08:41:10 51°13.545 2°35.995 246.2 15.5 243 16.9
2002-09-25 08:42:10 51°13.422 2°35.633 243.3 15.4 241.6 16.6
2002-09-25 08:43:10 51°13.299 2°35.27 245.7 15.8 242.2 15.7
2002-09-25 08:44:10 51°13.172 2°34.912 245.2 15.5 243.4 16.1
2002-09-25 08:45:10 51°13.052 2°34.549 247.8 15.4 243.4 16
2002-09-25 08:46:10 51°12.933 2°34.182 246.3 15.5 242.2 15.5
2002-09-25 08:47:10 51°12.817 2°33.815 249.2 15.8 244.4 14.7
2002-09-25 08:48:10 51°12.703 2°33.448 249.7 15.6 244.8 14
2002-09-25 08:49:10 51°12.584 2°33.078 248.3 15.8 243.8 13.7
2002-09-25 08:50:10 51°12.469 2°32.712 251.7 15.3 245.6 14.9
2002-09-25 08:51:10 51°12.358 2°32.342 252 15.5 246 16.1
2002-09-25 08:52:10 51°12.246 2°31.968 249.2 15.5 243.1 17.7
2002-09-25 08:53:10 51°12.135 2°31.596 249.3 15.5 244.2 19
2002-09-25 08:54:10 51°12.018 2°31.227 246.5 15.5 241.8 19.7
2002-09-25 08:55:10 51°11.904 2°30.852 249.2 15.5 243.4 20.5
2002-09-25 08:56:10 51°11.787 2°30.478 249.8 15.7 243.2 21.1
2002-09-25 08:57:10 51°11.67 2°30.105 247.5 15.8 242.2 20.8
2002-09-25 08:58:10 51°11.554 2°29.727 250 15.9 244.6 20.4
2002-09-25 08:59:10 51°11.44 2°29.351 252.5 15.8 247 20
2002-09-25 09:00:10 51°11.329 2°28.969 250.5 16.2 245.3 19.7
2002-09-25 09:01:10 51°11.229 2°28.578 258.3 16.1 252.8 20.2
2002-09-25 09:02:10 51°11.177 2°28.169 272.3 15.6 265 20.4
2002-09-25 09:03:10 51°11.154 2°27.757 273.8 15.6 266.2 19.8
2002-09-25 09:04:10 51°11.149 2°27.346 278.5 15.3 269.7 21.9
2002-09-25 09:05:10 51°11.148 2°26.935 278.2 15.5 270.9 20.7
2002-09-25 09:06:10 51°11.142 2°26.526 277.2 15.3 269 18.2
2002-09-25 09:07:10 51°11.139 2°26.118 275.2 15.1 268.9 14.6
2002-09-25 09:08:10 51°11.135 2°25.718 277.5 15 270.2 12
2002-09-25 09:09:10 51°11.174 2°25.329 296.5 14.8 287.5 19.8
2002-09-25 09:10:10 51°11.322 2°25.07 339.7 12.7 329.2 21.5
2002-09-25 09:11:10 51°11.522 2°25.016 12.2 12.3 3.3 24.8
2002-09-25 09:12:10 51°11.718 2°25.08 22 12 14.5 23.9
2002-09-25 09:13:10 51°11.909 2°25.17 28.3 11.8 21 23.5
2002-09-25 09:14:10 51°12.079 2°25.321 37.5 11.6 32 24.2
2002-09-25 09:15:10 51°12.24 2°25.5 40.7 11.8 37.9 24.3
2002-09-25 09:16:10 51°12.392 2°25.693 41.7 11.7 38.1 23.9
2002-09-25 09:17:10 51°12.548 2°25.877 39.5 11.7 36.6 24.2
2002-09-25 09:18:10 51°12.702 2°26.063 41.2 11.6 36.6 24.1
2002-09-25 09:19:10 51°12.857 2°26.245 41 11.7 36.1 24.8
2002-09-25 09:20:10 51°13.011 2°26.422 39.5 11.4 35.6 24.9
2002-09-25 09:21:10 51°13.165 2°26.601 40 11.4 35.6 24.6
2002-09-25 09:22:10 51°13.321 2°26.78 40.3 11.5 36 25.2
2002-09-25 09:23:10 51°13.475 2°26.963 42 11.5 38.6 25.8
2002-09-25 09:24:10 51°13.621 2°27.162 44.7 11.4 42 25
2002-09-25 09:25:10 51°13.769 2°27.36 43.5 11.7 41 24.5
2002-09-25 09:26:10 51°13.916 2°27.56 46 11.6 43.6 25.2
2002-09-25 09:27:10 51°14.053 2°27.779 48.2 11.6 45.2 25.3
2002-09-25 09:28:10 51°14.187 2°27.991 47 11.4 44.6 25.7
2002-09-25 09:29:10 51°14.323 2°28.201 46.8 11.5 44.2 25.9
2002-09-25 09:30:10 51°14.462 2°28.413 47.5 11.6 44.1 26.6
2002-09-25 09:31:10 51°14.599 2°28.628 48 11.7 45.5 26.8
2002-09-25 09:32:10 51°14.735 2°28.844 48.3 11.5 45 26.7
2002-09-25 09:33:10 51°14.862 2°29.075 52.7 11.7 50.7 26.9
2002-09-25 09:34:10 51°14.987 2°29.311 51.7 11.7 49.1 26.5
2002-09-25 09:35:10 51°15.109 2°29.549 52.5 11.3 51.8 26.5
2002-09-25 09:36:10 51°15.232 2°29.783 51.5 11.6 50 26.6
2002-09-25 09:37:10 51°15.357 2°30.019 52.8 11.6 49.6 27.1
2002-09-25 09:38:10 51°15.488 2°30.252 50.3 11.9 47.7 26.2
2002-09-25 09:39:10 51°15.622 2°30.479 49.8 11.7 47 26.7
2002-09-25 09:40:10 51°15.751 2°30.706 51.2 11.5 48.6 26.6
2002-09-25 09:41:10 51°15.884 2°30.932 49.3 11.9 46.1 26.9
2002-09-25 09:42:10 51°16.022 2°31.154 48.7 11.8 44.7 26.4
2002-09-25 09:43:10 51°16.163 2°31.371 46.3 11.4 43.5 26.5
2002-09-25 09:44:10 51°16.306 2°31.591 46.7 12.1 43.3 27.1
2002-09-25 09:45:10 51°16.449 2°31.816 47.5 12.1 45 26.3
2002-09-25 09:46:10 51°16.594 2°32.041 48.3 12.3 44 25.4
2002-09-25 09:47:10 51°16.738 2°32.268 47.7 12.1 44.4 24.4
2002-09-25 09:48:10 51°16.88 2°32.493 48.3 12 45.3 24.4
2002-09-25 09:49:10 51°17.022 2°32.717 48.2 12.1 44.7 24.6
2002-09-25 09:50:10 51°17.165 2°32.945 50 12.1 46.2 24.6
2002-09-25 09:51:10 51°17.309 2°33.168 48.8 11.9 44.7 24.7
2002-09-25 09:52:10 51°17.452 2°33.392 46.2 12 42.8 26
2002-09-25 09:53:10 51°17.595 2°33.614 48 11.8 44.9 24.7
2002-09-25 09:54:10 51°17.735 2°33.837 49.5 12 45 26.3
2002-09-25 09:55:10 51°17.87 2°34.063 49.5 11.9 47.2 26.9
2002-09-25 09:56:10 51°18.008 2°34.289 50.8 11.8 46.1 27
2002-09-25 09:57:10 51°18.149 2°34.513 49 11.9 45.8 26.8
2002-09-25 09:58:10 51°18.283 2°34.737 49 11.8 45.5 26.3
2002-09-25 09:59:10 51°18.417 2°34.966 50.8 11.8 47.6 25.5
2002-09-25 10:00:10 51°18.55 2°35.201 52.3 11.9 49.2 23.1
2002-09-25 10:01:10 51°18.682 2°35.434 51.7 11.9 47.7 24.1
2002-09-25 10:02:10 51°18.813 2°35.67 51.7 11.8 48.4 21
2002-09-25 10:03:10 51°18.945 2°35.905 52.5 11.9 47.6 20.3
2002-09-25 10:04:10 51°19.074 2°36.139 51.7 11.8 48.5 22.8
2002-09-25 10:05:10 51°19.205 2°36.377 51 11.7 47.6 20.7
2002-09-25 10:06:10 51°19.333 2°36.613 50.2 11.9 47.3 21.9
2002-09-25 10:07:10 51°19.463 2°36.848 51.3 11.9 48 21.3
2002-09-25 10:08:10 51°19.587 2°37.083 53.8 11.3 50.8 20.3
2002-09-25 10:09:10 51°19.714 2°37.32 51.5 11.9 49.5 21.3
2002-09-25 10:10:10 51°19.845 2°37.556 50.3 11.8 48.1 20.1
2002-09-25 10:11:10 51°19.976 2°37.785 48.8 11.6 45.7 20.7
2002-09-25 10:12:10 51°20.118 2°37.997 46.7 11.6 42.2 21.1
2002-09-25 10:13:10 51°20.26 2°38.209 48 11.9 43.3 22.9
2002-09-25 10:14:10 51°20.404 2°38.412 43.3 11.7 39.4 23.9
2002-09-25 10:15:10 51°20.565 2°38.597 35.2 11.9 30 23.6
2002-09-25 10:16:10 51°20.742 2°38.732 28.7 11.8 21.9 24.1
2002-09-25 10:17:10 51°20.919 2°38.858 30.8 11.7 24.6 24
2002-09-25 10:18:10 51°21.093 2°39.002 34.7 11.7 29.1 25.1
2002-09-25 10:19:10 51°21.265 2°39.145 32.3 11.7 25.7 25
2002-09-25 10:20:10 51°21.451 2°39.222 14.7 12.1 5.4 25.2
2002-09-25 10:21:10 51°21.653 2°39.251 17.3 12 8 26.8
2002-09-25 10:22:10 51°21.85 2°39.31 19.7 12 10.7 27.3
2002-09-25 10:23:10 51°22.042 2°39.374 20 11.7 12.4 27.5
2002-09-25 10:24:10 51°22.234 2°39.44 19.2 12 10.6 28.4
2002-09-25 10:25:10 51°22.43 2°39.5 17.3 12 10.2 27.7
2002-09-25 10:26:10 51°22.627 2°39.566 20.5 12.2 12.6 29.2
2002-09-25 10:27:10 51°22.82 2°39.636 21.2 11.9 13.7 29.8
2002-09-25 10:28:10 51°23.016 2°39.711 25.7 12 18.8 29.8
2002-09-25 10:29:10 51°23.206 2°39.807 25.8 12 18.9 29.5
2002-09-25 10:30:10 51°23.397 2°39.902 21.3 11.9 14.1 -999
2002-09-25 10:31:10 51°23.591 2°39.954 15.8 11.6 6.8 28.5
2002-09-25 10:32:10 51°23.786 2°39.999 15.8 12.1 7.8 28.3
2002-09-25 10:33:10 51°23.985 2°40.05 17.3 12.1 9.7 24.3
2002-09-25 10:34:10 51°24.179 2°40.098 15.2 11.9 7.4 27.3
2002-09-25 10:35:10 51°24.378 2°40.131 12.3 12.2 5.1 25.9
2002-09-25 10:36:10 51°24.579 2°40.159 13 12.1 5.3 26.1
2002-09-25 10:37:10 51°24.775 2°40.185 13.7 12 5.4 26.1
2002-09-25 10:38:10 51°24.974 2°40.215 14.3 12.1 5.3 26.9
2002-09-25 10:39:10 51°25.171 2°40.246 15 12 6.2 27.8
2002-09-25 10:40:10 51°25.367 2°40.276 14.3 11.5 5 27.7
2002-09-25 10:41:10 51°25.56 2°40.297 13.2 11.7 3.5 28.6
2002-09-25 10:42:10 51°25.756 2°40.314 13.7 11.6 2.3 29.5
2002-09-25 10:43:10 51°25.955 2°40.332 15.5 12 4.3 30.2
2002-09-25 10:44:10 51°26.122 2°40.467 47.5 11.3 41.7 30.2
2002-09-25 10:45:10 51°26.229 2°40.712 55.5 11.3 53.9 30.5
2002-09-25 10:46:10 51°26.34 2°40.958 62 11.6 60.2 30.4
2002-09-25 10:47:10 51°26.423 2°41.237 66 11.5 66.8 29.1
2002-09-25 10:48:10 51°26.503 2°41.521 65.7 11.9 64.7 28.6
2002-09-25 10:49:10 51°26.584 2°41.808 67.3 11.8 65.4 29.4
2002-09-25 10:50:10 51°26.66 2°42.095 67.7 11.9 66.3 30.4
2002-09-25 10:51:10 51°26.744 2°42.383 66.7 12 65.7 31
2002-09-25 10:52:10 51°26.827 2°42.672 64.7 12 64.2 28.9
2002-09-25 10:53:10 51°26.881 2°42.98 86.3 12.6 87.3 30.8
2002-09-25 10:54:10 51°26.886 2°43.32 89.8 12.9 91.1 28.3
2002-09-25 10:55:10 51°26.876 2°43.66 102 13.1 102.6 24.1
2002-09-25 10:56:10 51°26.739 2°43.941 136.5 14.4 140.8 23.1
2002-09-25 10:57:10 51°26.559 2°44.176 135.3 13.8 139.3 26.9
2002-09-25 10:58:10 51°26.385 2°44.429 132.3 14.3 136.6 27.6
2002-09-25 10:59:10 51°26.199 2°44.668 137.2 14.3 141.2 26.3
2002-09-25 11:00:10 51°26.017 2°44.908 136.5 14.3 138.1 24.9
2002-09-25 11:01:10 51°25.83 2°45.144 143.3 14.7 146.3 24
2002-09-25 11:02:10 51°25.624 2°45.344 146.3 14.7 149.4 23.1
2002-09-25 11:03:10 51°25.423 2°45.548 144.7 14.5 147.5 23.9
2002-09-25 11:04:10 51°25.217 2°45.75 146.8 14.4 149 25.4
2002-09-25 11:05:10 51°25.016 2°45.958 145.5 13.9 146.5 23.5
2002-09-25 11:06:10 51°24.814 2°46.162 147.7 13.9 148.5 24.5
2002-09-25 11:07:10 51°24.663 2°46.426 107.5 13 110.2 26.1
2002-09-25 11:08:10 51°24.724 2°46.721 58 12.3 55.3 28.8
2002-09-25 11:09:10 51°24.822 2°47.012 62 12.4 60.3 28.9
2002-09-25 11:10:10 51°24.925 2°47.303 64.5 12.6 62.9 29.7
2002-09-25 11:11:10 51°25.023 2°47.601 62.8 12.7 62.8 28.6
2002-09-25 11:12:10 51°25.118 2°47.89 62 12.3 60 28.5
2002-09-25 11:13:10 51°25.214 2°48.186 64.3 12.5 63.1 29.5
2002-09-25 11:14:10 51°25.308 2°48.484 65.2 12.4 65.7 29.1
2002-09-25 11:15:10 51°25.399 2°48.779 65.5 12.3 63.8 26.3
2002-09-25 11:16:10 51°25.499 2°49.065 60.3 12.3 60.1 23.7
2002-09-25 11:17:10 51°25.605 2°49.341 60.8 12.3 59.9 23.3
2002-09-25 11:18:10 51°25.705 2°49.621 58.8 11.8 60.1 23.2
2002-09-25 11:19:10 51°25.8 2°49.902 60.8 11.8 62.1 22.9
2002-09-25 11:20:10 51°25.9 2°50.187 58.8 12.2 58.5 23.1
2002-09-25 11:21:10 51°26.066 2°50.222 338.8 12.1 330 23.5
2002-09-25 11:22:10 51°26.245 2°50.051 339.3 12.5 329.9 23.6
2002-09-25 11:23:10 51°26.427 2°49.881 339 12.8 329.9 23.2
2002-09-25 11:24:10 51°26.61 2°49.711 339.8 12.4 330 22.7
2002-09-25 11:25:10 51°26.793 2°49.541 341.7 12.5 330.2 18.1
2002-09-25 11:26:10 51°26.974 2°49.366 340.7 12.6 328.9 22.9
2002-09-25 11:27:10 51°27.156 2°49.192 338.8 12.6 327.9 24
2002-09-25 11:28:10 51°27.339 2°49.021 340.2 12.9 329.3 24.9
2002-09-25 11:29:10 51°27.52 2°48.85 339.2 12.7 329.4 24.5
2002-09-25 11:30:10 51°27.709 2°48.684 341.5 13 332.4 28.9
2002-09-25 11:31:10 51°27.896 2°48.516 339.2 12.6 329.3 30.3
2002-09-25 11:32:10 51°28.084 2°48.355 340.7 13.1 332.2 30.2
2002-09-25 11:33:10 51°28.271 2°48.191 339.3 12.8 331.5 30.2
2002-09-25 11:34:10 51°28.455 2°48.222 40.2 11.7 36.6 31.5
2002-09-25 11:35:10 51°28.546 2°48.51 64.3 12.3 63.3 30.9
2002-09-25 11:36:10 51°28.634 2°48.805 64.5 12.4 63.6 32.4
2002-09-25 11:37:10 51°28.725 2°49.107 64.5 12.5 65.4 28.9
2002-09-25 11:38:10 51°28.813 2°49.404 65.7 12.4 66.4 28.5
2002-09-25 11:39:10 51°28.898 2°49.706 64.5 12.5 65.9 29
2002-09-25 11:40:10 51°28.979 2°50.004 65.2 12.4 65 27.7
2002-09-25 11:41:10 51°29.065 2°50.309 64 12.7 65.2 30.1
2002-09-25 11:42:10 51°29.152 2°50.616 64.3 12.6 65.3 -999
2002-09-25 11:43:10 51°29.239 2°50.92 64.8 12.8 64.6 28.7
2002-09-25 11:44:10 51°29.325 2°51.233 69.3 12.8 69.4 27.9
2002-09-25 11:45:10 51°29.402 2°51.55 67.7 12.9 68 28.8
2002-09-25 11:46:10 51°29.48 2°51.865 68.3 12.6 68.6 30.3
2002-09-25 11:47:10 51°29.454 2°52.199 121.2 13.7 123.6 30.3
2002-09-25 11:48:10 51°29.268 2°52.427 139.2 14.3 142.2 29.8
2002-09-25 11:49:10 51°29.051 2°52.583 156.8 14.2 159.1 28.8
2002-09-25 11:50:10 51°28.823 2°52.725 157 14.3 158.5 26.6
2002-09-25 11:51:10 51°28.597 2°52.877 152.5 15.2 155.6 25.2
2002-09-25 11:52:10 51°28.375 2°53.023 157.8 14 159.2 23.4
2002-09-25 11:53:10 51°28.148 2°53.171 154.2 15.1 157.7 22.8
2002-09-25 11:54:10 51°27.923 2°53.318 155.7 14.5 158.7 21.3
2002-09-25 11:55:10 51°27.697 2°53.467 158 14.6 160.4 21.4
2002-09-25 11:56:10 51°27.474 2°53.627 153.2 14.5 156.1 25.5
2002-09-25 11:57:10 51°27.247 2°53.771 159 15 159.6 24.3
2002-09-25 11:58:10 51°27.02 2°53.916 156 14.5 159.1 24
2002-09-25 11:59:10 51°26.794 2°54.05 158.3 14.3 159.3 28.7
2002-09-25 12:00:10 51°26.567 2°54.185 159.3 15.5 159.1 31.4
2002-09-25 12:01:10 51°26.338 2°54.32 159.7 14.3 161.1 24.2
2002-09-25 12:02:10 51°26.113 2°54.455 160.2 14.4 161.1 24.4
2002-09-25 12:03:10 51°25.88 2°54.578 162.7 14.9 162.9 23.8
2002-09-25 12:04:10 51°25.639 2°54.64 173.7 14.8 173 20.8
2002-09-25 12:05:10 51°25.395 2°54.699 170 14.6 170.5 19.5
2002-09-25 12:06:10 51°25.149 2°54.766 170 14.9 169.6 20.2
2002-09-25 12:07:10 51°24.903 2°54.843 168.3 15 168.1 18.5
2002-09-25 12:08:10 51°24.657 2°54.916 169.5 14.8 168.9 21.4
2002-09-25 12:09:10 51°24.421 2°54.997 171.2 14 169.1 23
2002-09-25 12:10:10 51°24.179 2°55.066 172.5 14.7 171.7 22.3
2002-09-25 12:11:10 51°23.938 2°55.145 169.3 15.2 167.5 21.7
2002-09-25 12:12:10 51°23.697 2°55.216 172 14.7 171.9 20.1
2002-09-25 12:13:10 51°23.457 2°55.29 168.2 14.5 167.2 18.6
2002-09-25 12:14:10 51°23.22 2°55.361 167.3 15.2 167.4 20
2002-09-25 12:15:10 51°22.983 2°55.44 170.7 14.6 168.6 19.9
2002-09-25 12:16:10 51°22.743 2°55.523 167.8 14.9 166.5 19.3
2002-09-25 12:17:10 51°22.508 2°55.598 171.2 14.4 169.9 18.9
2002-09-25 12:18:10 51°22.266 2°55.666 170.5 14.7 168.3 19.2
2002-09-25 12:19:10 51°22.028 2°55.752 169.5 14.6 168.4 18.6
2002-09-25 12:20:10 51°21.789 2°55.831 168.3 14.6 166.8 18.5
2002-09-25 12:21:10 51°21.552 2°55.911 169.7 14.4 168.1 18.1
2002-09-25 12:22:10 51°21.31 2°55.977 174.7 14.9 173.2 17
2002-09-25 12:23:10 51°21.074 2°55.891 204.3 14.6 201.1 16.2
2002-09-25 12:24:10 51°20.853 2°55.74 209 14.7 205.6 15.5
2002-09-25 12:25:10 51°20.639 2°55.56 213.2 14.4 208.9 15
2002-09-25 12:26:10 51°20.427 2°55.377 211 14.2 207.4 14.8
2002-09-25 12:27:10 51°20.227 2°55.17 225.5 14.1 220.8 14.5
2002-09-25 12:28:10 51°20.049 2°54.927 224.3 14 220.8 14.4
2002-09-25 12:29:10 51°19.866 2°54.684 223.3 14.2 219 14.3
2002-09-25 12:30:10 51°19.678 2°54.45 220.3 14.3 215.4 13.9
2002-09-25 12:31:10 51°19.489 2°54.224 221.7 14.1 217.2 13.6
2002-09-25 12:32:10 51°19.302 2°53.995 220.7 14 216.4 13.6
2002-09-25 12:33:10 51°19.112 2°53.767 221.5 14.4 216.7 13.4
2002-09-25 12:34:10 51°18.923 2°53.545 220.5 14.1 216.3 13.2
2002-09-25 12:35:10 51°18.739 2°53.322 220 13.5 215.7 13.1
2002-09-25 12:36:10 51°18.553 2°53.1 222.7 14.1 218.3 13
2002-09-25 12:37:10 51°18.366 2°52.881 220.5 14.3 216.1 12.8
2002-09-25 12:38:10 51°18.18 2°52.666 220.7 13.9 216.6 12.5
2002-09-25 12:39:10 51°17.99 2°52.458 217.3 14.5 212.1 12.2
2002-09-25 12:40:10 51°17.769 2°52.34 198.2 14.5 194.2 12.1
2002-09-25 12:41:10 51°17.531 2°52.301 185.8 14.8 182.5 12.3
2002-09-25 12:42:10 51°17.292 2°52.321 172.2 14.5 169.4 12.1
2002-09-25 12:43:10 51°17.063 2°52.447 163.5 14 159.6 11.4
2002-09-25 12:44:10 51°16.846 2°52.609 160.5 13.9 154.9 11.4
2002-09-25 12:45:10 51°16.63 2°52.783 158.3 14 153.8 13.3
2002-09-25 12:46:10 51°16.412 2°52.944 159.8 14.3 155.7 14.1
2002-09-25 12:47:10 51°16.199 2°53.101 160.5 13.7 155.3 14.1
2002-09-25 12:48:10 51°15.987 2°53.277 153.3 14.6 150 13.9
2002-09-25 12:49:10 51°15.774 2°53.454 156.8 14.5 153 13.5
2002-09-25 12:50:10 51°15.572 2°53.653 152 13.9 148.4 12.9
2002-09-25 12:51:10 51°15.369 2°53.856 153.5 14.5 149.3 11.8
2002-09-25 12:52:10 51°15.178 2°54.082 142.5 14.5 137.6 11.2
2002-09-25 12:53:10 51°14.986 2°54.305 150 14.4 145.3 10.8
2002-09-25 12:54:10 51°14.789 2°54.513 155.3 14.1 149.9 11.7
2002-09-25 12:55:10 51°14.608 2°54.712 147.5 12.8 139.3 11.7
2002-09-25 12:56:10 51°14.446 2°54.937 142.2 13 134.8 12.1